Etusivu
METAR-TAF:

METAR-TAF

Lentoasemat :

Thulen lentotukikohta

Thule, Grönlanti

Leveyspiiri: 76-32N, Pituuspiiri: 068-42W, korkeus merenpinnasta: 77 m

Tämänhetkinen sää

Tämä raportti tehtiin 36 minuuttia sitten, kello 17.56 UTC
Tuuli 11 kn idästä
Lämpötila -28°C
Kosteus 83%
Ilmanpaine 1022 hPa
Näkyvyys 10 km tai enemmän
selkeää

METAR: BGTL 191756Z 09011KT 9999 CLR M28/M30 A3018 RMK AO2A SLP213 4/001 T12781303 11201 21278 55004 TSNO $

Aika: 14:32 (18:32 UTC)

Sääennuste

Tämä raportti tehtiin 32 minuuttia sitten, kello 18.00 UTC
Ennuste voimassa 19. päivästä klo 18 UTC - 20. päivään klo 24 UTC
Tuuli 6 kn eri suunnista
Näkyvyys: 2010 m
Muutamia pilviä 6000 ft:n korkeudessa
Hajanaisia pilviä 16000 ft:n korkeudessa

TAF: BGTL 191800Z 1918/2024 VRB06KT 9999 FEW060 SCT160 QNH2961INS TXM22/2006Z TNM29/1920Z LAST NO AMDS AFT 1920 NEXT 2010

Säähavainnot ja -ennusteet yli 4000 lentoasemalta (METAR- ja TAF-raportit).

Käytössä olevat sääasemat on merkitty karttaan keltaisilla ja punaisilla pisteillä.

Aseta hiiri pisteen päälle nähdäksesi sääaseman nimen.

Klikkaa sitten nähdäksesi säähavainnot ja -ennusteet.

Kartan vaihtaminen: klikkaa mustalla rastilla varustettuja vihreitä pisteitä, niin voit zoomata sisään; viivalla varustettua vihreää pistettä, niin voit zoomata ulos tai vihreitä nuolia, niin pääset viereisille kartoille.


METAR-TAF: